Terminal Aerodrome Forecast
Issued by NWS Shreveport, LA

Home | Current Version | Previous Version | Text Only | Print | Product List | Glossary On
Versions: 1 2 3 4 5 6 7 8 9 10 11 12 13 14 15 16 17 18 19
503
FTUS44 KSHV 242359
TAFMLU
TAF
KMLU 242359Z 2500/2524 08004KT P6SM -SHRA BKN050 OVC120
      TEMPO 2500/2502 5SM -SHRA BR OVC050
     FM250400 VRB03KT P6SM SCT060 BKN120 BKN250
     FM250600 00000KT P6SM BKN150 BKN250
      TEMPO 2511/2514 5SM BR BKN040 BKN150 OVC250
     FM251400 VRB03KT P6SM VCTS SCT050CB
     FM251800 12004KT P6SM SCT250=

USA.gov is the U.S. government's official web portal to all federal, state and local government web resources and services.